Latest Coastal Weather Observations for Geraldton Airport

IDW60701

Issued at 1:33 pm WST Wednesday 22 November 2017 (issued every 10 minutes, with the page automatically refreshed every 10 minutes)

About coastal observations | Map of coastal stations | Coastal observations for WA | Marine services | Other Formats
Station Details ID: 008315 Name: GERALDTON AIRPORT Lat: -28.80 Lon: 114.70 Height: 29.7 m
Data from the previous 72 hours. | See also: Recent months at Geraldton Airport
Date/Time
WST
Temp
°C
Wind Pressure Rain since
9am
mm
Weather Cloud Vis
km
Sea
Height
m
Swell
Dir  Spd
kts
Gust
kts
hPa Trend Height
m
Period
s
Dir
22/01:00pm 32.6 SE 13 21 1012.2 - 0.0 - - 10 - - - -
22/12:30pm 33.1 E 12 17 1012.6 - 0.0 - - 10 - - - -
22/12:00pm 31.5 ESE 11 18 1013.1 - 0.0 - - 10 - - - -
22/11:30am 31.0 ESE 14 24 1013.4 - 0.0 - - 10 - - - -
22/11:00am 30.9 E 12 19 1013.6 - 0.0 - - 10 - - - -
22/10:30am 30.2 E 16 23 1013.9 - 0.0 - - 10 - - - -
22/10:00am 29.4 E 16 23 1014.4 - 0.0 - - 10 - - - -
22/09:30am 28.8 E 18 25 1014.8 - 0.0 - - 10 - - - -
22/09:00am 27.7 E 18 24 1014.9 - 0.0 - - 10 - - - -
22/08:30am 26.2 E 21 28 1014.9 - 0.0 - - 10 - - - -
22/08:00am 24.8 E 22 29 1014.9 - 0.0 - - 10 - - - -
22/07:30am 24.0 E 25 32 1014.6 - 0.0 - - 10 - - - -
22/07:19am 23.1 E 22 32 1014.6 - 0.0 - - 10 - - - -
22/07:00am 22.4 E 21 30 1014.6 - 0.0 - - 10 - - - -
22/06:30am 21.3 ESE 17 25 1014.6 - 0.0 - - 10 - - - -
22/06:00am 19.6 SE 13 18 1014.5 - 0.0 - - 10 - - - -
22/05:30am 19.3 SE 16 21 1014.3 - 0.0 - - 10 - - - -
22/05:00am 19.1 SE 17 22 1013.8 - 0.0 - - 10 - - - -
22/04:30am 18.2 SE 14 17 1013.7 - 0.0 - - 10 - - - -
22/04:24am 17.7 SE 12 17 1013.7 - 0.0 - - 10 - - - -
22/04:00am 12.7 SSE 7 9 1013.7 - 0.0 - - 10 - - - -
22/03:30am 11.9 SSE 6 8 1013.9 - 0.0 - - 10 - - - -
22/03:00am 12.4 SE 4 5 1014.1 - 0.0 - - 10 - - - -
22/02:30am 12.8 SSE 4 6 1014.1 - 0.0 - - 10 - - - -
22/02:00am 13.5 SSE 6 7 1014.3 - 0.0 - - 10 - - - -
22/01:30am 14.8 SSE 8 10 1014.7 - 0.0 - - 10 - - - -
22/01:00am 15.5 SSE 9 12 1015.0 - 0.0 - - 10 - - - -
22/12:30am 16.2 SE 9 14 1015.1 - 0.0 - - 10 - - - -
22/12:00am 17.3 SSE 13 16 1015.3 - 0.0 - - 10 - - - -
 
Date/Time
WST
Temp
°C
Wind Pressure Rain since
9am
mm
Weather Cloud Vis
km
Sea
Height
m
Swell
Dir  Spd
kts
Gust
kts
hPa Trend Height
m
Period
s
Dir
21/11:30pm 18.0 SE 11 17 1015.4 - 0.0 - - 10 - - - -
21/11:00pm 18.8 SSE 14 21 1015.7 - 0.0 - - 10 - - - -
21/10:30pm 19.2 SSE 16 22 1015.5 - 0.0 - - 10 - - - -
21/10:00pm 19.6 SSE 16 22 1015.6 - 0.0 - - 10 - - - -
21/09:30pm 19.7 SSE 15 20 1015.9 - 0.0 - - 10 - - - -
21/09:00pm 19.6 S 17 24 1015.7 - 0.0 - - 10 - - - -
21/08:30pm 19.6 S 18 26 1015.5 - 0.0 - - 10 - - - -
21/08:00pm 19.4 S 19 26 1015.2 - 0.0 - - 10 - - - -
21/07:30pm 19.4 S 18 25 1015.1 - 0.0 - - 10 - - - -
21/07:00pm 19.6 S 19 25 1014.9 - 0.0 - - 10 - - - -
21/06:30pm 20.2 S 18 27 1014.8 - 0.0 - - 10 - - - -
21/06:04pm 20.6 S 19 29 1014.4 - 0.0 - - 10 - - - -
21/06:00pm 20.7 S 19 27 1014.5 - 0.0 - - 10 - - - -
21/05:30pm 21.2 S 21 25 1014.5 - 0.0 - - 10 - - - -
21/05:00pm 22.0 S 21 27 1014.4 - 0.0 - - 10 - - - -
21/04:30pm 22.5 S 23 31 1014.2 - 0.0 - - 10 - - - -
21/04:00pm 23.3 S 20 27 1013.9 - 0.0 - - 10 - - - -
21/03:30pm 23.8 S 20 26 1014.0 - 0.0 - - 10 - - - -
21/03:00pm 24.1 S 22 29 1014.0 - 0.0 - - 10 - - - -
21/02:30pm 24.7 S 22 29 1014.3 - 0.0 - - 10 - - - -
21/02:00pm 24.2 S 23 31 1014.3 - 0.0 - - 10 - - - -
21/01:30pm 24.8 S 23 30 1014.7 - 0.0 - - 10 - - - -
21/01:00pm 24.5 SSW 23 29 1015.0 - 0.0 - - 10 - - - -
21/12:30pm 24.7 SSW 21 27 1015.4 - 0.0 - Mostly clear 10 - - - -
21/12:00pm 24.9 S 18 26 1015.7 - 0.0 - Mostly clear 10 - - - -
21/11:30am 25.1 S 19 25 1015.9 - 0.0 - Mostly clear 10 - - - -
21/11:00am 24.8 S 17 24 1016.3 - 0.0 - Mostly clear 10 - - - -
21/10:30am 23.7 S 17 24 1016.7 - 0.0 - Mostly clear 10 - - - -
21/10:00am 23.6 S 17 25 1017.0 - 0.0 - Partly cloudy 10 - - - -
21/09:30am 23.4 SSE 17 22 1017.0 - 0.0 - Mostly clear 10 - - - -
21/09:04am 24.3 SSE 17 27 1016.9 - 0.0 - Mostly clear 10 - - - -
21/09:00am 23.1 SSE 18 27 1016.9 - 0.0 - Mostly clear 10 - - - -
21/08:30am 21.7 SE 20 26 1016.8 - 0.0 - Mostly clear 10 - - - -
21/08:00am 20.8 SE 20 26 1016.7 - 0.0 - Mostly clear 10 - - - -
21/07:30am 20.1 SSE 18 23 1016.8 - 0.0 - Mostly clear 10 - - - -
21/07:00am 19.0 SE 17 24 1016.8 - 0.0 - - 10 - - - -
21/06:59am 18.7 SE 17 24 1016.8 - 0.0 - - 10 - - - -
21/06:30am 17.5 SE 10 14 1016.9 - 0.0 - - 10 - - - -
21/06:00am 15.1 SE 9 11 1016.5 - 0.0 - - 10 - - - -
21/05:30am 14.2 SE 9 10 1016.1 - 0.0 - - 10 - - - -
21/05:00am 14.2 SE 9 12 1015.7 - 0.0 - Partly cloudy 10 - - - -
21/04:30am 14.5 SE 8 10 1015.5 - 0.0 - Partly cloudy 10 - - - -
21/04:00am 14.1 SE 7 9 1015.4 - 0.0 - Partly cloudy 10 - - - -
21/03:30am 13.6 SE 5 7 1015.2 - 0.0 - Partly cloudy 10 - - - -
21/03:00am 13.7 SSE 6 6 1015.1 - 0.0 - - 10 - - - -
21/02:30am 14.0 SSE 7 7 1015.2 - 0.0 - - 10 - - - -
21/02:00am 14.7 SE 6 7 1015.2 - 0.0 - Partly cloudy 10 - - - -
21/01:30am 15.3 SE 7 9 1015.2 - 0.0 - - 10 - - - -
21/01:00am 16.1 SE 7 9 1015.4 - 0.0 - - 10 - - - -
21/12:30am 18.7 S 13 18 1015.4 - 0.0 - - 10 - - - -
21/12:00am 18.7 SSE 11 14 1015.6 - 0.0 - Mostly clear 10 - - - -
 
Date/Time
WST
Temp
°C
Wind Pressure Rain since
9am
mm
Weather Cloud Vis
km
Sea
Height
m
Swell
Dir  Spd
kts
Gust
kts
hPa Trend Height
m
Period
s
Dir
20/11:30pm 19.5 S 13 20 1015.8 - 0.0 - Partly cloudy 10 - - - -
20/11:00pm 19.3 S 12 16 1015.8 - 0.0 - Partly cloudy 10 - - - -
20/10:30pm 19.0 S 12 16 1016.0 - 0.0 - Partly cloudy 10 - - - -
20/10:00pm 19.1 S 13 19 1016.1 - 0.0 - Partly cloudy 10 - - - -
20/09:30pm 19.1 S 15 20 1015.9 - 0.0 - - 10 - - - -
20/09:00pm 19.0 S 13 18 1015.7 - 0.0 - Partly cloudy 10 - - - -
20/08:30pm 19.1 S 15 21 1015.5 - 0.0 - - 10 - - - -
20/08:00pm 18.9 S 14 19 1015.3 - 0.0 - - 10 - - - -
20/07:30pm 18.9 S 12 15 1015.1 - 0.0 - - 10 - - - -
20/07:00pm 19.4 S 14 18 1015.0 - 0.0 - - 10 - - - -
20/06:30pm 20.2 S 15 20 1014.7 - 0.0 - - 10 - - - -
20/06:00pm 21.1 SSW 16 21 1014.4 - 0.0 - - 10 - - - -
20/05:30pm 21.3 S 15 21 1014.1 - 0.0 - - 10 - - - -
20/05:00pm 22.1 SSW 15 21 1014.0 - 0.0 - - 10 - - - -
20/04:30pm 22.4 S 15 21 1013.9 - 0.0 - - 10 - - - -
20/04:00pm 21.8 SSW 15 22 1013.8 - 0.0 - - 10 - - - -
20/03:30pm 22.9 SSW 15 21 1013.7 - 0.0 - - 10 - - - -
20/03:00pm 22.9 SSW 15 21 1013.8 - 0.0 - Mostly clear 10 - - - -
20/02:30pm 22.9 SSW 14 20 1013.8 - 0.0 - Partly cloudy 10 - - - -
20/02:00pm 24.4 SSW 13 20 1013.9 - 0.0 - Mostly clear 10 - - - -
20/01:30pm 22.8 SSW 13 19 1014.0 - 0.0 - Mostly clear 10 - - - -
20/01:00pm 23.7 SSW 14 19 1014.2 - 0.0 - Mostly clear 10 - - - -
20/12:30pm 23.3 SSW 15 21 1014.3 - 0.0 - Mostly clear 10 - - - -
20/12:00pm 23.6 S 13 19 1014.5 - 0.0 - Partly cloudy 10 - - - -
20/11:30am 23.3 S 15 21 1014.8 - 0.0 - Mostly clear 10 - - - -
20/11:00am 22.0 SSW 14 21 1014.8 - 0.0 - Mostly clear 10 - - - -
20/10:30am 22.2 S 12 17 1015.0 - 0.0 - Mostly clear 10 - - - -
20/10:00am 21.0 S 13 18 1015.1 - 0.0 - Mostly cloudy 10 - - - -
20/09:30am 21.3 S 12 17 1015.0 - 0.0 - Mostly cloudy 10 - - - -
20/09:00am 21.2 S 9 13 1015.0 - 0.0 - Cloudy 10 - - - -
20/08:30am 20.9 SSE 10 14 1015.1 - 0.0 - Mostly clear 10 - - - -
20/08:00am 20.0 SSE 11 14 1015.0 - 0.0 - Mostly clear 10 - - - -
20/07:30am 19.9 SE 11 15 1014.8 - 0.0 - Mostly clear 10 - - - -
20/07:00am 19.4 SE 12 15 1014.5 - 0.0 - Partly cloudy 10 - - - -
20/06:30am 17.6 SE 11 14 1014.3 - 0.0 - Partly cloudy 10 - - - -
20/06:00am 17.5 SE 8 11 1014.1 - 0.0 - Cloudy 10 - - - -
20/05:30am 16.9 SE 6 8 1013.8 - 0.0 - Cloudy 10 - - - -
20/05:00am 16.6 SE 5 6 1013.4 - 0.0 - Cloudy 10 - - - -
20/04:30am 16.3 SSE 5 6 1013.3 - 0.0 - Partly cloudy 10 - - - -
20/04:00am 15.8 SE 5 7 1013.1 - 0.0 - Cloudy 10 - - - -
20/03:30am 14.9 SE 5 6 1013.1 - 0.0 - Partly cloudy 10 - - - -
20/03:00am 15.1 SE 5 6 1013.2 - 0.0 - Mostly cloudy 10 - - - -
20/02:30am 14.9 SE 5 6 1013.0 - 0.0 - Partly cloudy 10 - - - -
20/02:00am 15.1 SE 6 7 1012.9 - 0.0 - Partly cloudy 10 - - - -
20/01:30am 15.1 SE 7 9 1013.0 - 0.0 - - 10 - - - -
20/01:00am 15.2 SE 6 7 1013.2 - 0.0 - - 10 - - - -
20/12:30am 15.8 SE 6 8 1013.2 - 0.0 - - 10 - - - -
20/12:00am 17.3 SSE 7 11 1013.4 - 0.0 - Mostly clear 10 - - - -
 
Date/Time
WST
Temp
°C
Wind Pressure Rain since
9am
mm
Weather Cloud Vis
km
Sea
Height
m
Swell
Dir  Spd
kts
Gust
kts
hPa Trend Height
m
Period
s
Dir
19/11:30pm 18.6 S 9 11 1013.8 - 0.0 - Partly cloudy 10 - - - -
19/11:00pm 18.7 S 10 13 1014.0 - 0.0 - Partly cloudy 10 - - - -
19/10:30pm 18.5 S 10 13 1014.2 - 0.0 - Partly cloudy 10 - - - -
19/10:00pm 18.2 S 8 12 1014.0 - 0.0 - - 10 - - - -
19/09:30pm 18.1 S 9 11 1014.1 - 0.0 - - 10 - - - -
19/09:00pm 18.7 S 11 16 1014.0 - 0.0 - - 10 - - - -
19/08:30pm 18.9 S 12 16 1014.0 - 0.0 - Partly cloudy 10 - - - -
19/08:00pm 18.8 S 11 15 1013.7 - 0.0 - - 10 - - - -
19/07:30pm 18.9 SSW 11 14 1013.5 - 0.0 - - 10 - - - -
19/07:00pm 19.4 S 11 14 1013.2 - 0.0 - - 10 - - - -
19/06:30pm 20.2 SSW 14 18 1012.8 - 0.0 - - 10 - - - -
19/06:00pm 20.9 S 15 20 1012.5 - 0.0 - - 10 - - - -
19/05:30pm 21.8 SSW 15 19 1012.6 - 0.0 - - 10 - - - -
19/05:00pm 22.5 S 16 21 1012.3 - 0.0 - - 10 - - - -
19/04:30pm 23.3 SSW 15 20 1012.2 - 0.0 - - 10 - - - -
19/04:00pm 23.2 SSW 15 20 1012.1 - 0.0 - - 10 - - - -
19/03:30pm 23.1 SW 16 22 1012.2 - 0.0 - - 10 - - - -
19/03:00pm 23.4 SSW 16 21 1012.1 - 0.0 - - 10 - - - -
19/02:30pm 24.1 SSW 16 22 1012.1 - 0.0 - - 10 - - - -
19/02:00pm 23.7 SSW 15 21 1012.4 - 0.0 - - 10 - - - -

Other Formats:

Comma delimited format used in spreadsheet applications
http://www.bom.gov.au/fwo/IDW60701/IDW60701.94403.axf

JavaScript Object Notation format (JSON) in row-major order
http://www.bom.gov.au/fwo/IDW60701/IDW60701.94403.json